Time;durP1;ratioP1;P1;durP2;ratioP2;P2;SDS_P1;SDS_P2;PMS_P1;PMS_P2;Temp;Humidity;BMP_temperature;BMP_pressure;BME280_temperature;BME280_humidity;BME280_pressure;Samples;Min_cycle;Max_cycle;Signal;HPM_P1;HPM_P2
2023/09/08 00:01:58;;;;;;;4.30;2.38;;;;;;;-145.63;44.08;39239.38;5024180;28;20128;-65
2023/09/08 00:04:23;;;;;;;3.40;2.03;;;;;;;-145.63;44.48;39206.13;5024180;28;20197;-66
2023/09/08 00:06:49;;;;;;;3.88;2.00;;;;;;;-145.63;43.72;39237.41;5024109;28;20029;-66
2023/09/08 00:09:15;;;;;;;4.32;2.40;;;;;;;-145.63;44.66;39235.47;5024271;28;20030;-66
2023/09/08 00:11:41;;;;;;;5.13;2.50;;;;;;;-145.63;43.95;39239.38;5022853;28;20326;-65
2023/09/08 00:14:07;;;;;;;7.57;2.78;;;;;;;-145.63;44.11;39225.69;5023094;28;20033;-66
2023/09/08 00:16:32;;;;;;;5.53;2.30;;;;;;;-145.63;44.33;39243.28;5023829;28;20085;-65
2023/09/08 00:18:58;;;;;;;5.38;2.40;;;;;;;-145.63;44.67;39212.00;5023945;28;20026;-66
2023/09/08 00:21:25;;;;;;;3.13;2.10;;;;;;;-145.63;44.88;39196.34;5023998;28;20033;-65
2023/09/08 00:23:51;;;;;;;4.80;2.53;;;;;;;-145.63;44.42;39249.16;5023839;28;20052;-66
2023/09/08 00:26:17;;;;;;;4.05;2.33;;;;;;;-145.63;44.49;39237.41;5023932;28;20033;-66
2023/09/08 00:28:43;;;;;;;5.25;2.22;;;;;;;-145.63;44.65;39241.31;5023629;28;20245;-66
2023/09/08 00:31:08;;;;;;;7.20;2.25;;;;;;;-145.63;44.80;39243.28;5023751;28;20226;-66
2023/09/08 00:33:34;;;;;;;6.22;2.13;;;;;;;-145.63;44.56;39227.63;5023569;28;20083;-65
2023/09/08 00:36:00;;;;;;;5.50;2.60;;;;;;;-145.63;44.69;39235.47;5023714;28;20021;-66
2023/09/08 00:38:26;;;;;;;4.57;2.45;;;;;;;-145.63;44.94;39229.59;5007049;28;20026;-65
2023/09/08 00:40:52;;;;;;;7.65;2.60;;;;;;;-145.63;44.82;39264.78;5020980;28;20044;-66
2023/09/08 00:43:18;;;;;;;5.43;2.60;;;;;;;-145.63;44.45;39221.78;5023598;28;20029;-66
2023/09/08 00:45:45;;;;;;;7.30;2.63;;;;;;;-145.63;44.52;39223.72;5023392;28;20288;-66
2023/09/08 00:48:12;;;;;;;7.05;2.63;;;;;;;-145.63;44.88;39249.16;5023508;28;20215;-66
2023/09/08 00:50:38;;;;;;;5.20;2.63;;;;;;;-145.63;45.25;39219.81;5023210;28;20064;-65
2023/09/08 00:53:05;;;;;;;3.53;2.13;;;;;;;-145.63;44.70;39235.47;5023376;28;20021;-65
2023/09/08 00:55:31;;;;;;;6.40;2.72;;;;;;;-145.63;44.92;39245.25;5023625;28;20025;-66
2023/09/08 00:57:58;;;;;;;5.97;2.38;;;;;;;-145.63;44.27;39356.72;5023429;28;20026;-66
2023/09/08 01:00:27;;;;;;;8.00;2.90;;;;;;;-145.63;44.82;39264.78;5023412;28;20041;-65
2023/09/08 01:02:53;;;;;;;6.25;2.80;;;;;;;-145.63;44.48;39258.94;5023252;28;20050;-66
2023/09/08 01:05:20;;;;;;;5.82;3.20;;;;;;;-145.63;45.15;39258.94;5023341;28;20034;-66
2023/09/08 01:07:47;;;;;;;6.45;3.30;;;;;;;-145.63;44.63;39212.00;5023057;28;20030;-66
2023/09/08 01:10:14;;;;;;;6.72;3.15;;;;;;;-145.63;45.07;39245.25;5023404;28;20030;-66
2023/09/08 01:12:40;;;;;;;5.53;2.92;;;;;;;-145.63;44.34;39255.00;5023312;28;20067;-66
2023/09/08 01:15:06;;;;;;;7.38;2.97;;;;;;;-145.63;44.83;39241.31;5023592;28;20329;-66
2023/09/08 01:17:33;;;;;;;3.67;2.50;;;;;;;-145.63;44.70;39245.25;5023167;28;20531;-66
2023/09/08 01:20:05;;;;;;;4.80;3.00;;;;;;;-145.63;45.83;39239.38;5023167;28;20025;-66
2023/09/08 01:22:33;;;;;;;6.72;2.53;;;;;;;-145.63;45.23;39239.38;5022978;28;20349;-66
2023/09/08 01:25:19;;;;;;;7.10;2.25;;;;;;;-145.63;44.60;39235.47;5021995;28;20080;-66
2023/09/08 01:27:49;;;;;;;8.07;2.88;;;;;;;-145.63;45.10;39309.78;5023000;28;20034;-66
2023/09/08 01:30:16;;;;;;;5.13;2.30;;;;;;;-145.63;44.75;39258.94;5023214;28;20053;-66
2023/09/08 01:32:44;;;;;;;6.10;2.70;;;;;;;-145.63;44.74;39233.50;5022959;28;20037;-66
2023/09/08 01:35:10;;;;;;;4.50;2.63;;;;;;;-145.63;44.92;39243.28;5023372;28;20307;-66
2023/09/08 01:37:38;;;;;;;6.60;3.10;;;;;;;-145.63;44.71;39237.41;5022891;28;20357;-65
2023/09/08 01:40:05;;;;;;;5.45;2.90;;;;;;;-145.63;44.88;39256.97;5023124;28;20049;-66
2023/09/08 01:42:31;;;;;;;4.85;2.65;;;;;;;-145.63;45.09;39239.38;5022955;28;20030;-66
2023/09/08 01:44:56;;;;;;;6.32;3.00;;;;;;;-145.63;44.63;39223.72;5023035;28;20025;-66
2023/09/08 01:47:22;;;;;;;7.35;3.13;;;;;;;-145.63;44.63;39256.97;5022973;28;20026;-65
2023/09/08 01:49:48;;;;;;;5.03;2.92;;;;;;;-145.63;45.13;39256.97;5022922;28;20026;-67
2023/09/08 01:52:13;;;;;;;6.55;2.10;;;;;;;-145.63;45.87;39213.94;5025072;28;20501;-66
2023/09/08 01:54:39;;;;;;;4.63;2.47;;;;;;;-145.63;45.43;39247.19;5026458;28;20027;-64
2023/09/08 01:57:04;;;;;;;4.05;2.17;;;;;;;-145.63;46.02;39174.84;5026587;28;20026;-65
2023/09/08 01:59:30;;;;;;;6.22;2.33;;;;;;;-145.63;45.91;39233.50;5026520;28;20030;-64
2023/09/08 02:01:56;;;;;;;4.65;2.47;;;;;;;-145.63;46.71;39251.09;5026295;28;20022;-66
2023/09/08 02:04:21;;;;;;;5.18;2.45;;;;;;;-145.63;47.09;39247.19;5026472;28;20042;-65
2023/09/08 02:06:47;;;;;;;4.97;2.50;;;;;;;-145.63;47.90;39245.25;5026239;28;20299;-65
2023/09/08 02:09:14;;;;;;;3.50;1.95;;;;;;;-145.63;48.41;39276.53;5026343;28;20052;-65
2023/09/08 02:11:41;;;;;;;4.97;2.00;;;;;;;-145.63;48.71;39243.28;5026303;28;20344;-65
2023/09/08 02:14:07;;;;;;;2.47;1.73;;;;;;;-145.63;48.26;39278.47;5026265;28;20037;-65
2023/09/08 02:16:33;;;;;;;3.15;1.95;;;;;;;-145.63;49.11;39253.06;5026071;28;20074;-65
2023/09/08 02:18:59;;;;;;;11.13;5.90;;;;;;;-145.63;48.48;39170.91;5026135;28;20206;-65
2023/09/08 02:21:24;;;;;;;5.07;2.50;;;;;;;-145.63;48.40;39210.03;5025960;28;20022;-65
2023/09/08 02:23:50;;;;;;;3.25;2.10;;;;;;;-145.63;50.13;39266.75;5025894;28;20303;-64
2023/09/08 02:26:15;;;;;;;3.50;2.10;;;;;;;-145.63;50.24;39247.19;5026147;28;20037;-65
2023/09/08 02:28:41;;;;;;;3.50;1.67;;;;;;;-145.63;50.12;39290.22;5025579;28;20048;-65
2023/09/08 02:31:07;;;;;;;2.97;1.85;;;;;;;-145.63;49.05;39260.88;5025848;28;20018;-64
2023/09/08 02:33:32;;;;;;;3.20;2.17;;;;;;;-145.63;50.27;39262.84;5025670;28;20076;-64
2023/09/08 02:36:05;;;;;;;2.45;1.63;;;;;;;-145.63;50.54;39266.75;5026031;28;20092;-65
2023/09/08 02:38:32;;;;;;;3.03;1.80;;;;;;;-145.63;50.87;39284.34;5025937;28;20329;-63
2023/09/08 02:40:57;;;;;;;4.47;2.00;;;;;;;-145.63;49.84;39266.75;5025580;28;20036;-64
2023/09/08 02:43:23;;;;;;;3.13;1.90;;;;;;;-145.63;51.24;39233.50;5025609;28;20034;-65
2023/09/08 02:45:49;;;;;;;2.75;1.80;;;;;;;-145.63;51.42;39309.78;5025687;28;20302;-65
2023/09/08 02:48:16;;;;;;;3.90;2.05;;;;;;;-145.63;50.16;39260.88;5025484;28;20037;-64
2023/09/08 02:50:43;;;;;;;5.95;2.08;;;;;;;-145.63;51.35;39278.47;5025560;28;20317;-64
2023/09/08 02:53:09;;;;;;;3.55;2.05;;;;;;;-145.63;51.74;39315.66;5024360;28;20026;-64
2023/09/08 02:55:35;;;;;;;2.30;1.70;;;;;;;-145.63;51.50;39276.53;5025703;28;20034;-65
2023/09/08 02:58:01;;;;;;;4.53;2.13;;;;;;;-145.63;51.68;39282.41;5025666;28;20030;-65
2023/09/08 03:00:27;;;;;;;2.95;1.63;;;;;;;-145.63;51.19;39258.94;5024433;28;20026;-66
2023/09/08 03:02:52;;;;;;;2.67;1.80;;;;;;;-145.63;51.46;39294.13;5024890;28;20265;-66
2023/09/08 03:05:18;;;;;;;6.82;2.05;;;;;;;-145.63;52.51;39262.84;5025279;28;20080;-65
2023/09/08 03:07:47;;;;;;;2.42;1.90;;;;;;;-145.63;52.34;39294.13;5025268;28;20042;-66
2023/09/08 03:10:12;;;;;;;3.35;2.08;;;;;;;-145.63;53.71;39300.00;5025308;28;20085;-66
2023/09/08 03:12:38;;;;;;;3.67;2.20;;;;;;;-145.63;52.35;39294.13;5024052;28;20218;-65
2023/09/08 03:15:04;;;;;;;4.45;1.92;;;;;;;-145.63;52.13;39260.88;5025126;28;20121;-65
2023/09/08 03:17:30;;;;;;;3.67;2.00;;;;;;;-145.63;51.26;39296.09;5025365;28;20060;-66
2023/09/08 03:19:56;;;;;;;4.15;1.92;;;;;;;-145.63;52.17;39321.50;5023725;28;20033;-66
2023/09/08 03:22:22;;;;;;;4.00;2.30;;;;;;;-145.63;52.25;39276.53;5022577;28;20014;-66
2023/09/08 03:24:47;;;;;;;3.88;2.00;;;;;;;-145.63;52.29;39043.81;5012347;28;20042;-66
2023/09/08 03:27:13;;;;;;;2.75;2.00;;;;;;;-145.63;51.73;39278.47;5024880;28;20088;-65
2023/09/08 03:29:38;;;;;;;3.97;2.25;;;;;;;-145.63;51.34;39298.03;5024664;28;20049;-65
2023/09/08 03:32:05;;;;;;;3.00;1.70;;;;;;;-145.63;50.37;39258.94;5024933;28;20081;-66
2023/09/08 03:34:31;;;;;;;4.80;1.83;;;;;;;-145.63;50.06;39268.72;5024780;28;20025;-66
2023/09/08 03:36:56;;;;;;;3.55;1.90;;;;;;;-145.63;51.25;39258.94;5039985;28;20029;-64
2023/09/08 03:39:22;;;;;;;1.85;1.67;;;;;;;-145.63;50.55;39268.72;5024492;28;20026;-64
2023/09/08 03:41:47;;;;;;;3.30;1.80;;;;;;;-145.63;52.12;39284.34;5024332;28;20294;-65
2023/09/08 03:44:13;;;;;;;3.10;1.80;;;;;;;-145.63;51.68;39278.47;5024230;28;20030;-65
2023/09/08 03:46:39;;;;;;;2.13;1.60;;;;;;;-145.63;51.65;39288.25;5024290;28;20038;-67
2023/09/08 03:49:04;;;;;;;1.83;1.48;;;;;;;-145.63;50.45;39241.31;5024492;28;20294;-65
2023/09/08 03:51:30;;;;;;;3.85;1.60;;;;;;;-145.63;49.99;39266.75;5024548;28;20021;-66
2023/09/08 03:53:56;;;;;;;2.55;1.67;;;;;;;-145.63;49.61;39241.31;5024287;28;20022;-65
2023/09/08 03:56:21;;;;;;;2.47;1.90;;;;;;;-145.63;49.44;39210.03;5024457;28;20033;-66
2023/09/08 03:58:48;;;;;;;3.15;1.92;;;;;;;-145.63;49.13;39239.38;5023004;28;20034;-65
2023/09/08 04:01:14;;;;;;;2.28;1.90;;;;;;;-145.63;48.88;39249.16;5024289;28;20194;-66
2023/09/08 04:03:40;;;;;;;3.83;2.10;;;;;;;-145.63;49.97;39239.38;5024183;28;20033;-66
2023/09/08 04:06:05;;;;;;;3.25;1.88;;;;;;;-145.63;49.48;39227.63;5024149;28;20030;-66
2023/09/08 04:08:31;;;;;;;2.70;1.98;;;;;;;-145.63;49.50;39221.78;5024236;28;20030;-66
2023/09/08 04:10:56;;;;;;;2.20;1.63;;;;;;;-145.63;49.46;39231.53;5024196;28;20335;-66
2023/09/08 04:13:22;;;;;;;2.30;1.95;;;;;;;-145.63;49.19;39245.25;5023742;28;20155;-66
2023/09/08 04:15:48;;;;;;;3.13;1.88;;;;;;;-145.63;48.31;39249.16;5023506;28;20029;-66
2023/09/08 04:18:13;;;;;;;2.78;1.70;;;;;;;-145.63;48.50;39251.09;5023978;28;20233;-65
2023/09/08 04:20:39;;;;;;;2.20;2.00;;;;;;;-145.63;47.96;39290.22;5023676;28;20030;-66
2023/09/08 04:23:05;;;;;;;4.53;2.30;;;;;;;-145.63;47.94;39245.25;5023718;28;20391;-65
2023/09/08 04:25:30;;;;;;;3.08;2.10;;;;;;;-145.63;48.45;39264.78;5024181;28;20022;-64
2023/09/08 04:27:56;;;;;;;3.22;1.60;;;;;;;-145.63;48.58;39245.25;5023823;28;20034;-65
2023/09/08 04:30:22;;;;;;;3.22;1.92;;;;;;;-145.63;47.09;39256.97;5023706;28;20022;-66
2023/09/08 04:32:47;;;;;;;4.25;2.00;;;;;;;-145.63;48.18;38660.53;5022120;28;20021;-65
2023/09/08 04:35:13;;;;;;;3.00;1.90;;;;;;;-145.63;48.16;39258.94;5005415;28;20368;-65
2023/09/08 04:37:39;;;;;;;2.63;1.90;;;;;;;-145.63;47.20;39292.19;5017708;28;20249;-67
2023/09/08 04:40:07;;;;;;;3.95;2.10;;;;;;;-145.63;47.73;39284.34;5023673;28;20074;-66
2023/09/08 04:42:33;;;;;;;6.88;2.20;;;;;;;-145.63;47.99;39276.53;5023425;28;20183;-66
2023/09/08 04:44:58;;;;;;;5.15;2.78;;;;;;;-145.63;47.85;39282.41;5022250;28;20113;-66
2023/09/08 04:47:24;;;;;;;4.13;2.40;;;;;;;-145.63;47.36;39260.88;5022269;28;20318;-64
2023/09/08 04:49:49;;;;;;;3.90;2.20;;;;;;;-145.63;47.91;39022.28;5023299;28;20029;-65
2023/09/08 04:52:15;;;;;;;3.72;2.60;;;;;;;-145.63;48.62;39290.22;5023045;28;20029;-65
2023/09/08 04:54:40;;;;;;;5.38;2.42;;;;;;;-145.63;47.95;39245.25;5022875;28;20026;-65
2023/09/08 04:57:06;;;;;;;4.43;2.60;;;;;;;-145.63;47.88;39221.78;5022585;28;20045;-66
2023/09/08 04:59:32;;;;;;;4.10;2.17;;;;;;;-145.63;47.67;39229.59;5022967;28;20018;-65
2023/09/08 05:01:58;;;;;;;4.13;2.10;;;;;;;-145.63;47.60;39227.63;5023031;28;20273;-65
2023/09/08 05:04:24;;;;;;;5.88;2.20;;;;;;;-145.63;46.58;39217.84;5015962;28;20038;-65
2023/09/08 05:06:50;;;;;;;2.83;1.70;;;;;;;-145.63;47.04;39233.50;5010015;28;20044;-66
2023/09/08 05:09:15;;;;;;;7.63;2.35;;;;;;;-145.63;47.92;39245.25;5023004;28;20041;-66
2023/09/08 05:11:41;;;;;;;4.05;1.90;;;;;;;-145.63;47.97;39229.59;5023095;28;20048;-64
2023/09/08 05:14:06;;;;;;;3.33;1.70;;;;;;;-145.63;46.80;39210.03;5023196;28;20029;-66
2023/09/08 05:16:46;;;;;;;3.50;2.00;;;;;;;-145.63;47.20;39247.19;5023030;28;20033;-65
2023/09/08 05:19:15;;;;;;;2.28;1.58;;;;;;;-145.63;47.94;39251.09;5022892;28;20026;-66
2023/09/08 05:21:41;;;;;;;2.45;1.88;;;;;;;-145.63;47.52;39272.63;5022821;28;20025;-65
2023/09/08 05:24:08;;;;;;;3.60;1.73;;;;;;;-145.63;46.71;39194.38;5023406;28;20061;-65
2023/09/08 05:26:36;;;;;;;3.67;2.08;;;;;;;-145.63;47.03;39180.69;5025918;28;20040;-66
2023/09/08 05:29:02;;;;;;;3.80;2.00;;;;;;;-145.63;46.02;39235.47;5027276;28;20029;-66
2023/09/08 05:31:27;;;;;;;2.33;1.80;;;;;;;-145.63;45.98;39247.19;5027027;28;20237;-66
2023/09/08 05:33:53;;;;;;;3.10;1.70;;;;;;;-145.63;46.97;39204.16;5026819;28;20041;-65
2023/09/08 05:36:19;;;;;;;3.63;1.80;;;;;;;-145.63;45.31;39204.16;5027043;28;20025;-66
2023/09/08 05:38:45;;;;;;;3.45;1.60;;;;;;;-145.63;46.10;39182.66;5026987;28;20084;-66
2023/09/08 05:41:10;;;;;;;2.05;1.58;;;;;;;-145.63;45.52;39180.69;5026858;28;20060;-66
2023/09/08 05:43:36;;;;;;;4.38;2.00;;;;;;;-145.63;46.37;39174.84;5026657;28;20048;-65
2023/09/08 05:46:02;;;;;;;6.07;1.98;;;;;;;-145.63;45.65;39188.53;5026921;28;20076;-65
2023/09/08 05:48:27;;;;;;;4.75;2.00;;;;;;;-145.63;45.03;39176.78;5026751;28;20025;-67
2023/09/08 05:50:53;;;;;;;8.70;2.00;;;;;;;-145.63;44.96;39172.88;5026712;28;20041;-66
2023/09/08 05:53:19;;;;;;;1.73;1.42;;;;;;;-145.63;45.04;39133.75;5026601;28;20034;-65
2023/09/08 05:55:44;;;;;;;3.25;1.88;;;;;;;-145.63;44.65;39204.16;5026482;28;20030;-67
2023/09/08 05:58:10;;;;;;;2.72;1.80;;;;;;;-145.63;44.72;39208.06;5026562;28;20063;-66
2023/09/08 06:00:36;;;;;;;2.33;1.45;;;;;;;-145.63;44.54;39149.41;5026630;28;20104;-66
2023/09/08 06:03:02;;;;;;;2.72;1.50;;;;;;;-145.63;44.40;39192.44;5026502;28;20205;-66
2023/09/08 06:05:28;;;;;;;3.60;1.50;;;;;;;-145.63;44.05;39202.22;5026467;28;20029;-66
2023/09/08 06:07:54;;;;;;;7.55;2.05;;;;;;;-145.63;44.29;39212.00;5026434;28;20174;-65
2023/09/08 06:10:19;;;;;;;2.95;1.50;;;;;;;-145.63;44.56;39174.84;5026517;28;20033;-66
2023/09/08 06:12:45;;;;;;;2.95;1.58;;;;;;;-145.63;44.27;39184.59;5025892;28;20108;-66
2023/09/08 06:15:11;;;;;;;3.15;1.83;;;;;;;-145.63;43.63;39151.38;5026303;28;20029;-66
2023/09/08 06:17:36;;;;;;;3.20;1.80;;;;;;;-145.63;43.30;39165.06;5024881;28;20037;-66
2023/09/08 06:20:02;;;;;;;11.73;7.70;;;;;;;-145.63;44.09;39145.50;5025916;28;20032;-65
2023/09/08 06:22:30;;;;;;;5.15;1.75;;;;;;;-145.63;42.56;39176.78;5026371;28;20314;-65
2023/09/08 06:24:55;;;;;;;3.88;2.65;;;;;;;-145.63;42.05;39188.53;5026383;28;20061;-66
2023/09/08 06:27:21;;;;;;;3.05;1.77;;;;;;;-145.63;42.30;39184.59;5025837;28;20249;-65
2023/09/08 06:29:47;;;;;;;1.77;1.50;;;;;;;-145.63;42.20;39212.00;5010699;28;20037;-66
2023/09/08 06:32:12;;;;;;;2.75;1.95;;;;;;;-145.63;42.70;39172.88;5023635;28;20024;-65
2023/09/08 06:34:38;;;;;;;2.83;1.67;;;;;;;-145.63;42.62;39190.47;5025675;28;20322;-66
2023/09/08 06:37:03;;;;;;;3.70;1.40;;;;;;;-145.63;41.69;39208.06;5025213;28;20191;-66
2023/09/08 06:39:29;;;;;;;3.28;2.00;;;;;;;-145.63;43.00;39194.38;5025821;28;20026;-66
2023/09/08 06:41:55;;;;;;;1.90;1.70;;;;;;;-145.63;43.13;39196.34;5025720;28;20051;-65
2023/09/08 06:44:20;;;;;;;5.43;2.00;;;;;;;-145.63;43.28;39133.75;5025625;28;20222;-66
2023/09/08 06:46:47;;;;;;;3.85;1.88;;;;;;;-145.63;41.93;39155.28;5025532;28;20040;-66
2023/09/08 06:49:12;;;;;;;66.90;53.75;;;;;;;-145.63;41.91;39161.13;5025714;28;20096;-67
2023/09/08 06:51:38;;;;;;;4.35;2.30;;;;;;;-145.63;42.36;39149.41;5025427;28;20021;-67
2023/09/08 06:54:05;;;;;;;3.15;1.70;;;;;;;-145.63;41.28;39153.31;5025511;28;20029;-66
2023/09/08 06:56:30;;;;;;;3.78;2.13;;;;;;;-145.63;41.50;39153.31;5025905;28;20045;-65
2023/09/08 06:58:57;;;;;;;2.85;1.48;;;;;;;-145.63;41.02;39172.88;5025241;28;20376;-66
2023/09/08 07:01:24;;;;;;;4.97;1.88;;;;;;;-145.63;41.48;39153.31;5025205;28;20326;-66
2023/09/08 07:03:50;;;;;;;2.15;1.67;;;;;;;-145.63;41.13;39149.41;5024187;28;20110;-66
2023/09/08 07:06:16;;;;;;;4.50;1.60;;;;;;;-145.63;41.36;39161.13;5025426;28;20369;-65
2023/09/08 07:08:42;;;;;;;4.75;2.00;;;;;;;-145.63;41.24;39184.59;5025244;28;20330;-67
2023/09/08 07:11:07;;;;;;;5.20;2.95;;;;;;;-145.63;41.16;39157.22;5025207;28;20037;-64
2023/09/08 07:13:33;;;;;;;5.57;2.75;;;;;;;-145.63;40.86;39137.69;5024975;28;20030;-64
2023/09/08 07:15:59;;;;;;;5.40;1.92;;;;;;;-145.63;40.49;39174.84;5025445;28;20030;-66
2023/09/08 07:18:25;;;;;;;4.53;2.30;;;;;;;-145.63;40.68;39135.72;5025021;28;20030;-66
2023/09/08 07:20:50;;;;;;;6.00;3.17;;;;;;;-145.63;40.48;39137.69;5024779;28;20037;-66
2023/09/08 07:23:18;;;;;;;3.42;2.13;;;;;;;-145.63;40.30;39122.03;5024524;28;20340;-65
2023/09/08 07:25:47;;;;;;;2.22;1.70;;;;;;;-145.63;40.17;39137.69;5024967;28;20069;-66
2023/09/08 07:28:13;;;;;;;4.82;1.98;;;;;;;-145.63;39.93;39088.78;5024953;28;20029;-65
2023/09/08 07:30:38;;;;;;;4.88;1.60;;;;;;;-145.63;39.33;39118.13;5024902;28;20089;-67
2023/09/08 07:33:05;;;;;;;2.42;1.77;;;;;;;-145.63;39.09;39116.16;5024907;28;20030;-66
2023/09/08 07:35:31;;;;;;;2.95;1.50;;;;;;;-145.63;38.48;39067.28;5024832;28;20076;-65
2023/09/08 07:37:57;;;;;;;1.65;1.10;;;;;;;-145.63;39.07;39108.34;5024585;28;20088;-66
2023/09/08 07:40:22;;;;;;;3.53;1.48;;;;;;;-145.63;38.39;39082.91;5015777;28;20408;-66
2023/09/08 07:42:48;;;;;;;1.92;1.60;;;;;;;-145.63;38.29;39116.16;5023555;28;20400;-67
2023/09/08 07:45:14;;;;;;;2.85;1.70;;;;;;;-145.63;38.96;39114.22;5024664;28;20105;-66
2023/09/08 07:47:40;;;;;;;2.58;1.40;;;;;;;-145.63;39.01;39114.22;5024415;28;20026;-65
2023/09/08 07:50:18;;;;;;;4.53;1.60;;;;;;;-145.63;39.04;39141.59;5024381;28;20025;-65
2023/09/08 07:52:44;;;;;;;3.65;1.70;;;;;;;-145.63;39.31;39094.66;5024046;28;20043;-64
2023/09/08 07:55:09;;;;;;;1.98;1.40;;;;;;;-145.63;38.79;39116.16;5024312;28;20030;-65
2023/09/08 07:57:35;;;;;;;7.07;1.88;;;;;;;-145.63;39.03;39127.91;5024142;28;20034;-66
2023/09/08 08:00:01;;;;;;;3.17;1.83;;;;;;;-145.63;39.35;39084.88;5023305;28;20030;-65
2023/09/08 08:02:31;;;;;;;3.08;1.48;;;;;;;-145.63;38.82;39100.50;5023151;28;20113;-65
2023/09/08 08:04:57;;;;;;;1.95;1.27;;;;;;;-145.63;38.59;39086.81;5024001;28;20072;-65
2023/09/08 08:07:22;;;;;;;3.28;1.33;;;;;;;-145.63;38.20;38938.19;5024311;28;20029;-65
2023/09/08 08:09:48;;;;;;;3.67;1.60;;;;;;;-145.63;38.09;39149.41;5024100;28;20295;-65
2023/09/08 08:12:14;;;;;;;4.43;1.23;;;;;;;-145.63;38.09;39149.41;5024158;28;20025;-65
2023/09/08 08:14:39;;;;;;;5.68;1.42;;;;;;;-145.63;38.63;39127.91;5023917;28;20029;-66
2023/09/08 08:17:05;;;;;;;3.83;1.50;;;;;;;-145.63;38.14;39122.03;5023918;28;20036;-64
2023/09/08 08:19:31;;;;;;;2.22;1.50;;;;;;;-145.63;39.27;39153.31;5023922;28;20029;-65
2023/09/08 08:21:57;;;;;;;3.92;1.27;;;;;;;-145.63;38.18;39149.41;5023785;28;20033;-64
2023/09/08 08:24:23;;;;;;;3.65;1.40;;;;;;;-145.63;38.84;39110.28;5023694;28;20053;-65
2023/09/08 08:26:51;;;;;;;2.70;1.35;;;;;;;-145.63;38.74;39106.38;5023908;28;20033;-65
2023/09/08 08:29:17;;;;;;;6.00;1.58;;;;;;;-145.63;38.38;39122.03;5023598;28;20061;-64
2023/09/08 08:31:43;;;;;;;2.63;1.63;;;;;;;-145.63;38.46;39102.47;5023579;28;20357;-64
2023/09/08 08:34:09;;;;;;;2.60;1.67;;;;;;;-145.63;38.40;39133.75;5023543;28;20332;-64
2023/09/08 08:36:35;;;;;;;3.72;1.48;;;;;;;-145.63;38.50;39157.22;5022412;28;20060;-63
2023/09/08 08:39:00;;;;;;;4.25;1.52;;;;;;;-145.63;38.47;39112.25;5023755;28;20032;-64
2023/09/08 08:41:26;;;;;;;5.28;1.80;;;;;;;-145.63;38.37;39143.53;5023531;28;20081;-65
2023/09/08 08:43:53;;;;;;;3.45;1.48;;;;;;;-145.63;38.51;39122.03;5023413;28;20258;-64
2023/09/08 08:46:22;;;;;;;3.60;1.73;;;;;;;-145.63;38.73;39131.81;5023602;28;20049;-65
2023/09/08 08:48:51;;;;;;;4.30;1.80;;;;;;;-145.63;39.09;39082.91;5023234;28;20025;-64
2023/09/08 08:51:19;;;;;;;5.68;2.20;;;;;;;-145.63;39.63;39118.13;5023496;28;20045;-65
2023/09/08 08:53:44;;;;;;;4.47;2.08;;;;;;;-145.63;39.09;39139.63;5023529;28;20026;-63
2023/09/08 08:56:10;;;;;;;5.28;2.05;;;;;;;-145.63;39.06;39143.53;5023525;28;20049;-65
2023/09/08 08:58:38;;;;;;;3.80;2.08;;;;;;;-145.63;39.09;39102.47;5023057;28;20218;-65
2023/09/08 09:01:06;;;;;;;4.88;1.58;;;;;;;-145.63;39.64;39108.34;5023130;28;20022;-65
2023/09/08 09:03:34;;;;;;;4.90;2.20;;;;;;;-145.63;39.17;39114.22;5023218;28;20194;-64
2023/09/08 09:06:00;;;;;;;5.63;1.80;;;;;;;-145.63;39.28;39141.59;5023394;28;20318;-64
2023/09/08 09:08:26;;;;;;;5.32;2.20;;;;;;;-145.63;39.66;39120.06;5006823;28;20022;-64
2023/09/08 09:10:52;;;;;;;5.30;1.70;;;;;;;-145.63;39.58;39125.94;5016349;28;20314;-64
2023/09/08 09:13:18;;;;;;;12.65;2.25;;;;;;;-145.63;39.61;39125.94;5022133;28;20026;-64
2023/09/08 09:15:45;;;;;;;7.25;1.50;;;;;;;-145.63;39.39;39200.25;5023221;28;20030;-64
2023/09/08 09:18:11;;;;;;;4.72;2.05;;;;;;;-145.63;39.85;39137.69;5022846;28;20049;-64
2023/09/08 09:20:36;;;;;;;3.80;1.48;;;;;;;-145.63;40.01;39176.78;5022698;28;20030;-65
2023/09/08 09:23:03;;;;;;;3.80;1.65;;;;;;;-145.63;39.88;39139.63;5022821;28;20026;-65
2023/09/08 09:25:31;;;;;;;4.47;1.73;;;;;;;-145.63;40.09;39192.44;5022789;28;20038;-64
2023/09/08 09:28:01;;;;;;;2.47;1.15;;;;;;;-145.63;40.26;39127.91;5022804;28;20341;-64
2023/09/08 09:30:37;;;;;;;4.15;1.40;;;;;;;-145.63;40.35;39145.50;5023057;28;20049;-65
2023/09/08 09:33:04;;;;;;;2.70;1.50;;;;;;;-145.63;40.59;39157.22;5023144;28;20080;-64
2023/09/08 09:35:44;;;;;;;3.63;1.58;;;;;;;-145.63;40.54;39137.69;5021579;28;20022;-65
2023/09/08 09:38:10;;;;;;;3.45;1.52;;;;;;;-145.63;41.73;39127.91;5023001;28;20362;-65
2023/09/08 09:40:37;;;;;;;4.53;1.55;;;;;;;-145.63;41.54;39120.06;5022614;28;20034;-65
2023/09/08 09:43:04;;;;;;;3.10;1.40;;;;;;;-145.63;41.88;39202.22;5022738;28;20093;-63
2023/09/08 09:45:32;;;;;;;4.90;1.55;;;;;;;-145.63;41.47;39127.91;5023032;28;20022;-64
2023/09/08 09:47:58;;;;;;;3.60;1.60;;;;;;;-145.63;42.53;39131.81;5022771;28;20381;-64
2023/09/08 09:50:40;;;;;;;1.63;1.45;;;;;;;-145.63;44.82;39151.38;5005335;28;20030;-64
2023/09/08 09:53:14;;;;;;;3.75;1.60;;;;;;;-145.63;44.74;39170.91;5022665;28;20101;-64
2023/09/08 09:55:42;;;;;;;3.28;1.35;;;;;;;-145.63;46.90;38957.75;5022861;28;20072;-64
2023/09/08 09:58:10;;;;;;;3.42;2.22;;;;;;;-145.63;47.03;38752.44;5022739;28;20034;-64
2023/09/08 10:00:37;;;;;;;2.40;1.40;;;;;;;-145.63;47.99;39194.38;5022215;28;20037;-64
2023/09/08 10:03:04;;;;;;;7.88;2.20;;;;;;;-145.63;48.77;39190.47;5022875;28;20022;-64
2023/09/08 10:05:30;;;;;;;3.97;2.20;;;;;;;-145.63;50.99;39182.66;5022254;28;20036;-63
2023/09/08 10:07:56;;;;;;;4.60;1.95;;;;;;;-145.63;51.54;39221.78;5022740;28;20033;-63
2023/09/08 10:10:22;;;;;;;6.28;1.90;;;;;;;-145.63;51.87;39219.81;5022773;28;20326;-63
2023/09/08 10:12:57;;;;;;;3.53;1.77;;;;;;;-145.63;52.93;39284.34;5024000;28;20217;-65
2023/09/08 10:15:24;;;;;;;4.28;2.10;;;;;;;-145.63;52.68;39223.72;5026231;28;20030;-64
2023/09/08 10:17:57;;;;;;;2.33;1.38;;;;;;;-145.63;52.40;39163.09;5026166;28;20098;-64
2023/09/08 10:20:28;;;;;;;4.20;2.10;;;;;;;-145.63;53.88;39133.75;5025434;28;20068;-64
2023/09/08 10:23:22;;;;;;;3.33;1.83;;;;;;;-145.63;53.44;39137.69;5026019;28;20029;-64
2023/09/08 10:25:54;;;;;;;3.45;1.83;;;;;;;-145.63;52.17;39114.22;5025892;28;20517;-64
2023/09/08 10:28:22;;;;;;;3.33;1.92;;;;;;;-145.63;52.15;39118.13;5026153;28;20044;-63
2023/09/08 10:30:48;;;;;;;2.72;1.60;;;;;;;-145.63;52.87;39129.84;5025739;28;20025;-64
2023/09/08 10:33:15;;;;;;;5.45;1.98;;;;;;;-145.63;53.58;39141.59;5026341;28;20089;-63
2023/09/08 10:35:43;;;;;;;3.15;1.65;;;;;;;-145.63;53.88;39100.50;5025956;28;20292;-63
2023/09/08 10:38:28;;;;;;;2.08;1.40;;;;;;;-145.63;52.34;39137.69;5025913;28;20040;-64
2023/09/08 10:41:16;;;;;;;4.65;1.50;;;;;;;-145.63;53.19;39180.69;5025459;28;20029;-64
2023/09/08 10:43:46;;;;;;;2.25;1.15;;;;;;;-145.63;50.13;39125.94;5040996;28;20026;-65
2023/09/08 10:46:28;;;;;;;4.22;1.40;;;;;;;-145.63;49.53;39145.50;5025881;28;20025;-64
2023/09/08 10:48:55;;;;;;;4.45;1.50;;;;;;;-145.63;50.37;39145.50;5025776;28;20046;-63
2023/09/08 10:51:24;;;;;;;3.42;1.60;;;;;;;-145.63;49.41;39159.19;5025741;28;20198;-64
2023/09/08 10:53:50;;;;;;;3.05;1.60;;;;;;;-145.63;50.49;39125.94;5012967;28;20034;-62
2023/09/08 10:56:18;;;;;;;3.03;1.25;;;;;;;-145.63;48.52;39170.91;5025637;28;20052;-64
2023/09/08 10:58:49;;;;;;;4.85;1.50;;;;;;;-145.63;49.95;39188.53;5024237;28;20030;-63
2023/09/08 11:01:27;;;;;;;2.72;1.08;;;;;;;-145.63;48.14;39167.00;5025560;28;20025;-63
2023/09/08 11:03:53;;;;;;;1.98;1.23;;;;;;;-145.63;48.31;39212.00;5025360;28;20037;-63
2023/09/08 11:06:23;;;;;;;2.47;1.77;;;;;;;-145.63;48.94;39159.19;5025287;28;20294;-64
2023/09/08 11:08:53;;;;;;;2.72;1.60;;;;;;;-145.63;49.67;39202.22;5025283;28;20318;-63
2023/09/08 11:11:19;;;;;;;3.75;1.80;;;;;;;-145.63;51.18;39198.31;5025336;28;20369;-64
2023/09/08 11:13:46;;;;;;;6.57;1.60;;;;;;;-145.63;51.05;39196.34;5025180;28;20065;-64
2023/09/08 11:16:14;;;;;;;1.00;0.95;;;;;;;-145.63;50.79;39239.38;5024876;28;20315;-63